sensor_id;sensor_type;location;lat;lon;timestamp;pressure;altitude;pressure_sealevel;temperature;humidity
81999;BME280;71598;46.516;-122.928;2024-02-15T00:01:53;99310.05;;;18.34;18.92
81999;BME280;71598;46.516;-122.928;2024-02-15T00:04:18;99310.85;;;18.37;18.84
81999;BME280;71598;46.516;-122.928;2024-02-15T00:06:44;99317.46;;;18.57;18.84
81999;BME280;71598;46.516;-122.928;2024-02-15T00:09:08;99322.55;;;18.60;18.82
81999;BME280;71598;46.516;-122.928;2024-02-15T00:11:34;99322.74;;;18.70;18.84
81999;BME280;71598;46.516;-122.928;2024-02-15T00:13:59;99320.76;;;18.48;18.94
81999;BME280;71598;46.516;-122.928;2024-02-15T00:16:24;99318.54;;;18.33;18.89
81999;BME280;71598;46.516;-122.928;2024-02-15T00:18:49;99319.72;;;18.81;18.87
81999;BME280;71598;46.516;-122.928;2024-02-15T00:21:16;99315.36;;;18.45;18.91
81999;BME280;71598;46.516;-122.928;2024-02-15T00:23:42;99313.28;;;18.32;18.99
81999;BME280;71598;46.516;-122.928;2024-02-15T00:26:07;99310.22;;;18.12;18.97
81999;BME280;71598;46.516;-122.928;2024-02-15T00:28:33;99308.01;;;18.16;19.00
81999;BME280;71598;46.516;-122.928;2024-02-15T00:30:58;99308.06;;;18.08;18.97
81999;BME280;71598;46.516;-122.928;2024-02-15T00:33:23;99311.79;;;18.20;18.98
81999;BME280;71598;46.516;-122.928;2024-02-15T00:35:49;99311.70;;;18.37;18.98
81999;BME280;71598;46.516;-122.928;2024-02-15T00:38:14;99309.11;;;18.49;18.96
81999;BME280;71598;46.516;-122.928;2024-02-15T00:40:40;99310.85;;;18.49;18.92
81999;BME280;71598;46.516;-122.928;2024-02-15T00:43:06;99303.94;;;18.25;18.83
81999;BME280;71598;46.516;-122.928;2024-02-15T00:45:30;99298.51;;;18.56;18.99
81999;BME280;71598;46.516;-122.928;2024-02-15T00:47:56;99296.50;;;18.74;19.02
81999;BME280;71598;46.516;-122.928;2024-02-15T00:50:22;99299.20;;;18.52;18.99
81999;BME280;71598;46.516;-122.928;2024-02-15T00:52:47;99303.66;;;18.24;19.00
81999;BME280;71598;46.516;-122.928;2024-02-15T00:55:13;99299.00;;;18.32;18.98
81999;BME280;71598;46.516;-122.928;2024-02-15T00:57:37;99292.44;;;18.25;18.92
81999;BME280;71598;46.516;-122.928;2024-02-15T01:00:03;99294.35;;;18.13;18.96
81999;BME280;71598;46.516;-122.928;2024-02-15T01:02:28;99299.27;;;18.35;18.92
81999;BME280;71598;46.516;-122.928;2024-02-15T01:04:54;99303.47;;;18.29;18.94
81999;BME280;71598;46.516;-122.928;2024-02-15T01:07:20;99306.83;;;17.84;18.96
81999;BME280;71598;46.516;-122.928;2024-02-15T01:09:45;99305.71;;;18.04;18.98
81999;BME280;71598;46.516;-122.928;2024-02-15T01:12:10;99302.76;;;18.50;18.97
81999;BME280;71598;46.516;-122.928;2024-02-15T01:14:36;99305.16;;;17.90;19.00
81999;BME280;71598;46.516;-122.928;2024-02-15T01:17:03;99301.79;;;18.05;19.04
81999;BME280;71598;46.516;-122.928;2024-02-15T01:19:26;99296.92;;;18.38;19.00
81999;BME280;71598;46.516;-122.928;2024-02-15T01:21:53;99290.07;;;18.19;18.98
81999;BME280;71598;46.516;-122.928;2024-02-15T01:24:19;99290.76;;;18.32;18.89
81999;BME280;71598;46.516;-122.928;2024-02-15T01:26:43;99283.56;;;18.19;18.89
81999;BME280;71598;46.516;-122.928;2024-02-15T01:29:09;99281.55;;;18.41;18.89
81999;BME280;71598;46.516;-122.928;2024-02-15T01:31:34;99283.56;;;18.35;18.97
81999;BME280;71598;46.516;-122.928;2024-02-15T01:33:59;99290.76;;;18.47;18.98
81999;BME280;71598;46.516;-122.928;2024-02-15T01:36:25;99288.03;;;18.38;18.88
81999;BME280;71598;46.516;-122.928;2024-02-15T01:38:50;99288.78;;;18.10;18.86
81999;BME280;71598;46.516;-122.928;2024-02-15T01:41:15;99280.77;;;18.33;18.90
81999;BME280;71598;46.516;-122.928;2024-02-15T01:43:44;99278.78;;;18.32;18.85
81999;BME280;71598;46.516;-122.928;2024-02-15T01:46:09;99275.42;;;18.30;18.90
81999;BME280;71598;46.516;-122.928;2024-02-15T01:48:32;99271.67;;;18.24;18.94
81999;BME280;71598;46.516;-122.928;2024-02-15T01:50:58;99264.25;;;18.14;18.94
81999;BME280;71598;46.516;-122.928;2024-02-15T01:53:22;99263.71;;;18.27;18.96
81999;BME280;71598;46.516;-122.928;2024-02-15T01:55:48;99259.17;;;18.04;18.91
81999;BME280;71598;46.516;-122.928;2024-02-15T01:58:13;99258.79;;;18.24;18.93
81999;BME280;71598;46.516;-122.928;2024-02-15T02:00:39;99258.23;;;18.33;18.95
81999;BME280;71598;46.516;-122.928;2024-02-15T02:03:05;99250.88;;;18.21;19.06
81999;BME280;71598;46.516;-122.928;2024-02-15T02:05:30;99249.77;;;17.97;18.93
81999;BME280;71598;46.516;-122.928;2024-02-15T02:07:55;99248.96;;;18.39;18.99
81999;BME280;71598;46.516;-122.928;2024-02-15T02:10:20;99249.37;;;18.56;18.98
81999;BME280;71598;46.516;-122.928;2024-02-15T02:12:46;99253.75;;;18.39;19.02
81999;BME280;71598;46.516;-122.928;2024-02-15T02:15:11;99251.29;;;18.18;18.93
81999;BME280;71598;46.516;-122.928;2024-02-15T02:17:36;99248.75;;;18.32;18.93
81999;BME280;71598;46.516;-122.928;2024-02-15T02:20:03;99250.94;;;18.06;19.09
81999;BME280;71598;46.516;-122.928;2024-02-15T02:22:27;99247.15;;;18.10;18.99
81999;BME280;71598;46.516;-122.928;2024-02-15T02:25:02;99243.64;;;18.36;19.08
81999;BME280;71598;46.516;-122.928;2024-02-15T02:27:18;99244.21;;;18.37;19.01
81999;BME280;71598;46.516;-122.928;2024-02-15T02:29:43;99246.89;;;18.02;18.94
81999;BME280;71598;46.516;-122.928;2024-02-15T02:32:08;99249.05;;;18.37;18.93
81999;BME280;71598;46.516;-122.928;2024-02-15T02:34:33;99250.89;;;18.36;18.91
81999;BME280;71598;46.516;-122.928;2024-02-15T02:36:59;99244.95;;;18.24;18.83
81999;BME280;71598;46.516;-122.928;2024-02-15T02:39:24;99248.91;;;18.53;18.90
81999;BME280;71598;46.516;-122.928;2024-02-15T02:41:50;99241.16;;;18.27;18.94
81999;BME280;71598;46.516;-122.928;2024-02-15T02:44:15;99245.53;;;18.63;18.97
81999;BME280;71598;46.516;-122.928;2024-02-15T02:46:42;99245.11;;;18.46;19.01
81999;BME280;71598;46.516;-122.928;2024-02-15T02:49:05;99239.33;;;18.22;19.03
81999;BME280;71598;46.516;-122.928;2024-02-15T02:51:30;99236.46;;;18.07;18.99
81999;BME280;71598;46.516;-122.928;2024-02-15T02:53:56;99237.72;;;18.10;19.04
81999;BME280;71598;46.516;-122.928;2024-02-15T02:56:23;99235.13;;;18.14;18.93
81999;BME280;71598;46.516;-122.928;2024-02-15T02:58:47;99240.34;;;18.69;18.95
81999;BME280;71598;46.516;-122.928;2024-02-15T03:01:13;99234.28;;;18.47;19.02
81999;BME280;71598;46.516;-122.928;2024-02-15T03:03:38;99227.29;;;18.34;18.97
81999;BME280;71598;46.516;-122.928;2024-02-15T03:06:04;99226.08;;;18.47;18.93
81999;BME280;71598;46.516;-122.928;2024-02-15T03:08:29;99227.81;;;18.31;19.00
81999;BME280;71598;46.516;-122.928;2024-02-15T03:10:55;99222.24;;;17.99;19.03
81999;BME280;71598;46.516;-122.928;2024-02-15T03:13:21;99212.77;;;18.52;18.99
81999;BME280;71598;46.516;-122.928;2024-02-15T03:15:46;99210.09;;;18.07;19.00
81999;BME280;71598;46.516;-122.928;2024-02-15T03:18:11;99210.45;;;18.59;19.01
81999;BME280;71598;46.516;-122.928;2024-02-15T03:20:38;99208.69;;;18.24;18.89
81999;BME280;71598;46.516;-122.928;2024-02-15T03:23:02;99203.19;;;18.19;19.03
81999;BME280;71598;46.516;-122.928;2024-02-15T03:25:29;99211.43;;;18.15;19.07
81999;BME280;71598;46.516;-122.928;2024-02-15T03:27:57;99216.27;;;18.12;19.08
81999;BME280;71598;46.516;-122.928;2024-02-15T03:30:18;99219.44;;;18.41;19.13
81999;BME280;71598;46.516;-122.928;2024-02-15T03:32:43;99217.10;;;18.42;19.07
81999;BME280;71598;46.516;-122.928;2024-02-15T03:35:09;99217.35;;;18.14;19.09
81999;BME280;71598;46.516;-122.928;2024-02-15T03:37:33;99226.32;;;18.55;19.06
81999;BME280;71598;46.516;-122.928;2024-02-15T03:39:59;99227.53;;;18.41;19.05
81999;BME280;71598;46.516;-122.928;2024-02-15T03:42:25;99220.24;;;18.10;19.10
81999;BME280;71598;46.516;-122.928;2024-02-15T03:44:50;99212.06;;;18.72;19.05
81999;BME280;71598;46.516;-122.928;2024-02-15T03:47:15;99212.46;;;18.41;19.06
81999;BME280;71598;46.516;-122.928;2024-02-15T03:49:41;99214.55;;;18.23;19.13
81999;BME280;71598;46.516;-122.928;2024-02-15T03:52:06;99211.67;;;18.04;19.07
81999;BME280;71598;46.516;-122.928;2024-02-15T03:54:31;99210.41;;;18.47;19.12
81999;BME280;71598;46.516;-122.928;2024-02-15T03:56:58;99208.50;;;18.17;19.07
81999;BME280;71598;46.516;-122.928;2024-02-15T03:59:43;99211.39;;;18.35;19.07
81999;BME280;71598;46.516;-122.928;2024-02-15T04:01:48;99208.38;;;18.45;19.10
81999;BME280;71598;46.516;-122.928;2024-02-15T04:04:14;99209.14;;;18.31;19.00
81999;BME280;71598;46.516;-122.928;2024-02-15T04:06:40;99214.22;;;17.99;19.07
81999;BME280;71598;46.516;-122.928;2024-02-15T04:09:05;99213.13;;;18.42;19.04
81999;BME280;71598;46.516;-122.928;2024-02-15T04:11:30;99210.62;;;18.47;18.98
81999;BME280;71598;46.516;-122.928;2024-02-15T04:13:55;99212.20;;;18.31;19.02
81999;BME280;71598;46.516;-122.928;2024-02-15T04:16:21;99208.26;;;18.17;19.03
81999;BME280;71598;46.516;-122.928;2024-02-15T04:18:46;99208.47;;;18.42;19.09
81999;BME280;71598;46.516;-122.928;2024-02-15T04:21:12;99206.84;;;18.34;19.01
81999;BME280;71598;46.516;-122.928;2024-02-15T04:23:38;99202.65;;;18.43;19.03
81999;BME280;71598;46.516;-122.928;2024-02-15T04:26:03;99197.93;;;18.55;18.99
81999;BME280;71598;46.516;-122.928;2024-02-15T04:28:29;99195.00;;;17.91;19.00
81999;BME280;71598;46.516;-122.928;2024-02-15T04:30:54;99194.46;;;18.41;18.90
81999;BME280;71598;46.516;-122.928;2024-02-15T04:33:20;99197.09;;;18.30;18.86
81999;BME280;71598;46.516;-122.928;2024-02-15T04:35:46;99200.20;;;18.14;18.89
81999;BME280;71598;46.516;-122.928;2024-02-15T04:38:11;99201.99;;;18.14;18.90
81999;BME280;71598;46.516;-122.928;2024-02-15T04:40:37;99199.47;;;18.33;18.95
81999;BME280;71598;46.516;-122.928;2024-02-15T04:43:04;99201.40;;;18.45;19.00
81999;BME280;71598;46.516;-122.928;2024-02-15T04:45:27;99200.94;;;17.92;18.95
81999;BME280;71598;46.516;-122.928;2024-02-15T04:47:53;99198.22;;;18.26;18.98
81999;BME280;71598;46.516;-122.928;2024-02-15T04:50:19;99194.00;;;18.32;19.02
81999;BME280;71598;46.516;-122.928;2024-02-15T04:52:43;99189.77;;;18.37;19.02
81999;BME280;71598;46.516;-122.928;2024-02-15T04:55:09;99187.83;;;18.22;19.04
81999;BME280;71598;46.516;-122.928;2024-02-15T04:57:37;99185.91;;;18.18;18.97
81999;BME280;71598;46.516;-122.928;2024-02-15T04:59:59;99176.98;;;18.11;19.04
81999;BME280;71598;46.516;-122.928;2024-02-15T05:02:25;99169.91;;;18.34;19.00
81999;BME280;71598;46.516;-122.928;2024-02-15T05:04:54;99164.85;;;18.39;19.02
81999;BME280;71598;46.516;-122.928;2024-02-15T05:07:16;99165.35;;;18.09;19.01
81999;BME280;71598;46.516;-122.928;2024-02-15T05:09:41;99163.16;;;17.92;19.01
81999;BME280;71598;46.516;-122.928;2024-02-15T05:12:07;99152.47;;;18.13;18.98
81999;BME280;71598;46.516;-122.928;2024-02-15T05:14:32;99143.05;;;18.58;18.97
81999;BME280;71598;46.516;-122.928;2024-02-15T05:16:58;99139.73;;;18.28;18.99
81999;BME280;71598;46.516;-122.928;2024-02-15T05:19:23;99132.36;;;18.42;18.97
81999;BME280;71598;46.516;-122.928;2024-02-15T05:21:49;99130.85;;;18.13;18.99
81999;BME280;71598;46.516;-122.928;2024-02-15T05:24:15;99124.66;;;18.23;18.99
81999;BME280;71598;46.516;-122.928;2024-02-15T05:26:39;99119.93;;;18.11;19.02
81999;BME280;71598;46.516;-122.928;2024-02-15T05:29:05;99112.81;;;18.27;19.04
81999;BME280;71598;46.516;-122.928;2024-02-15T05:31:31;99112.93;;;17.99;19.03
81999;BME280;71598;46.516;-122.928;2024-02-15T05:33:55;99111.58;;;18.20;19.02
81999;BME280;71598;46.516;-122.928;2024-02-15T05:36:21;99111.19;;;18.19;19.00
81999;BME280;71598;46.516;-122.928;2024-02-15T05:38:48;99109.45;;;18.31;19.02
81999;BME280;71598;46.516;-122.928;2024-02-15T05:41:12;99107.56;;;18.13;19.00
81999;BME280;71598;46.516;-122.928;2024-02-15T05:43:38;99108.84;;;18.36;18.98
81999;BME280;71598;46.516;-122.928;2024-02-15T05:46:03;99103.63;;;18.19;19.05
81999;BME280;71598;46.516;-122.928;2024-02-15T05:48:29;99097.08;;;18.24;19.00
81999;BME280;71598;46.516;-122.928;2024-02-15T05:50:57;99095.06;;;17.90;19.04
81999;BME280;71598;46.516;-122.928;2024-02-15T05:53:20;99091.82;;;18.32;19.15
81999;BME280;71598;46.516;-122.928;2024-02-15T05:55:45;99100.10;;;18.15;18.99
81999;BME280;71598;46.516;-122.928;2024-02-15T05:58:11;99105.45;;;18.23;18.96
81999;BME280;71598;46.516;-122.928;2024-02-15T06:00:37;99105.75;;;17.95;19.03
81999;BME280;71598;46.516;-122.928;2024-02-15T06:03:01;99108.83;;;17.90;18.94
81999;BME280;71598;46.516;-122.928;2024-02-15T06:05:28;99108.30;;;18.07;18.96
81999;BME280;71598;46.516;-122.928;2024-02-15T06:07:52;99106.60;;;18.24;19.00
81999;BME280;71598;46.516;-122.928;2024-02-15T06:10:18;99104.10;;;18.39;19.01
81999;BME280;71598;46.516;-122.928;2024-02-15T06:12:43;99101.74;;;17.76;19.05
81999;BME280;71598;46.516;-122.928;2024-02-15T06:15:09;99099.26;;;18.08;19.01
81999;BME280;71598;46.516;-122.928;2024-02-15T06:17:33;99096.76;;;18.07;18.96
81999;BME280;71598;46.516;-122.928;2024-02-15T06:19:59;99094.97;;;18.24;18.95
81999;BME280;71598;46.516;-122.928;2024-02-15T06:22:24;99088.65;;;17.87;18.98
81999;BME280;71598;46.516;-122.928;2024-02-15T06:24:50;99079.04;;;18.12;18.97
81999;BME280;71598;46.516;-122.928;2024-02-15T06:27:15;99070.34;;;18.15;19.01
81999;BME280;71598;46.516;-122.928;2024-02-15T06:29:40;99069.45;;;17.82;18.99
81999;BME280;71598;46.516;-122.928;2024-02-15T06:32:06;99067.81;;;17.91;19.00
81999;BME280;71598;46.516;-122.928;2024-02-15T06:34:31;99067.99;;;17.95;19.11
81999;BME280;71598;46.516;-122.928;2024-02-15T06:36:59;99069.03;;;18.20;18.96
81999;BME280;71598;46.516;-122.928;2024-02-15T06:39:22;99068.83;;;17.96;19.04
81999;BME280;71598;46.516;-122.928;2024-02-15T06:41:47;99070.89;;;17.91;19.10
81999;BME280;71598;46.516;-122.928;2024-02-15T06:44:12;99062.34;;;18.07;18.99
81999;BME280;71598;46.516;-122.928;2024-02-15T06:46:38;99064.33;;;17.94;19.00
81999;BME280;71598;46.516;-122.928;2024-02-15T06:49:03;99070.59;;;18.17;18.94
81999;BME280;71598;46.516;-122.928;2024-02-15T06:51:29;99075.93;;;18.33;18.98
81999;BME280;71598;46.516;-122.928;2024-02-15T06:53:54;99073.03;;;18.04;19.07
81999;BME280;71598;46.516;-122.928;2024-02-15T06:56:19;99076.34;;;18.52;18.89
81999;BME280;71598;46.516;-122.928;2024-02-15T06:58:46;99083.16;;;19.05;18.76
81999;BME280;71598;46.516;-122.928;2024-02-15T07:01:10;99091.25;;;18.54;19.02
81999;BME280;71598;46.516;-122.928;2024-02-15T07:03:35;99074.34;;;18.74;19.07
81999;BME280;71598;46.516;-122.928;2024-02-15T07:06:01;99079.18;;;18.69;19.09
81999;BME280;71598;46.516;-122.928;2024-02-15T07:08:26;99081.23;;;19.09;19.09
81999;BME280;71598;46.516;-122.928;2024-02-15T07:10:52;99066.90;;;19.13;18.86
81999;BME280;71598;46.516;-122.928;2024-02-15T07:13:18;99077.48;;;19.01;18.76
81999;BME280;71598;46.516;-122.928;2024-02-15T07:15:42;99075.53;;;19.05;18.83
81999;BME280;71598;46.516;-122.928;2024-02-15T07:18:08;99077.43;;;18.55;18.89
81999;BME280;71598;46.516;-122.928;2024-02-15T07:20:34;99081.41;;;18.30;19.02
81999;BME280;71598;46.516;-122.928;2024-02-15T07:22:59;99085.03;;;18.84;19.07
81999;BME280;71598;46.516;-122.928;2024-02-15T07:25:24;99081.81;;;18.17;19.11
81999;BME280;71598;46.516;-122.928;2024-02-15T07:27:50;99086.85;;;18.12;19.11
81999;BME280;71598;46.516;-122.928;2024-02-15T07:30:16;99082.86;;;18.49;19.01
81999;BME280;71598;46.516;-122.928;2024-02-15T07:32:41;99079.90;;;18.25;19.03
81999;BME280;71598;46.516;-122.928;2024-02-15T07:35:06;99077.51;;;18.22;19.03
81999;BME280;71598;46.516;-122.928;2024-02-15T07:37:32;99075.95;;;18.22;19.01
81999;BME280;71598;46.516;-122.928;2024-02-15T07:39:57;99084.06;;;18.41;19.05
81999;BME280;71598;46.516;-122.928;2024-02-15T07:42:23;99082.57;;;17.90;18.99
81999;BME280;71598;46.516;-122.928;2024-02-15T07:44:48;99081.86;;;18.34;18.94
81999;BME280;71598;46.516;-122.928;2024-02-15T07:47:13;99069.26;;;18.48;18.94
81999;BME280;71598;46.516;-122.928;2024-02-15T07:49:39;99082.75;;;18.19;18.90
81999;BME280;71598;46.516;-122.928;2024-02-15T07:52:05;99080.92;;;18.54;18.95
81999;BME280;71598;46.516;-122.928;2024-02-15T07:54:31;99080.53;;;18.28;18.89
81999;BME280;71598;46.516;-122.928;2024-02-15T07:56:56;99081.82;;;18.59;18.90
81999;BME280;71598;46.516;-122.928;2024-02-15T07:59:22;99074.68;;;18.04;18.99
81999;BME280;71598;46.516;-122.928;2024-02-15T08:01:47;99078.01;;;18.37;18.95
81999;BME280;71598;46.516;-122.928;2024-02-15T08:04:12;99091.27;;;18.52;18.97
81999;BME280;71598;46.516;-122.928;2024-02-15T08:06:38;99086.50;;;18.16;19.03
81999;BME280;71598;46.516;-122.928;2024-02-15T08:09:04;99092.78;;;17.94;19.11
81999;BME280;71598;46.516;-122.928;2024-02-15T08:11:29;99080.92;;;18.15;19.09
81999;BME280;71598;46.516;-122.928;2024-02-15T08:13:55;99076.62;;;18.23;19.08
81999;BME280;71598;46.516;-122.928;2024-02-15T08:16:21;99066.72;;;18.18;18.99
81999;BME280;71598;46.516;-122.928;2024-02-15T08:18:45;99063.50;;;18.24;19.06
81999;BME280;71598;46.516;-122.928;2024-02-15T08:21:11;99063.99;;;18.05;19.14
81999;BME280;71598;46.516;-122.928;2024-02-15T08:23:37;99061.77;;;18.31;19.11
81999;BME280;71598;46.516;-122.928;2024-02-15T08:26:01;99061.12;;;18.31;19.09
81999;BME280;71598;46.516;-122.928;2024-02-15T08:28:27;99057.07;;;18.16;19.07
81999;BME280;71598;46.516;-122.928;2024-02-15T08:30:53;99049.06;;;18.21;19.10
81999;BME280;71598;46.516;-122.928;2024-02-15T08:33:18;99041.65;;;18.26;19.13
81999;BME280;71598;46.516;-122.928;2024-02-15T08:35:43;99039.94;;;18.33;19.08
81999;BME280;71598;46.516;-122.928;2024-02-15T08:38:09;99038.71;;;18.38;19.06
81999;BME280;71598;46.516;-122.928;2024-02-15T08:40:34;99038.43;;;18.26;19.08
81999;BME280;71598;46.516;-122.928;2024-02-15T08:42:59;99035.58;;;18.06;19.11
81999;BME280;71598;46.516;-122.928;2024-02-15T08:45:25;99038.54;;;17.88;19.10
81999;BME280;71598;46.516;-122.928;2024-02-15T08:47:50;99052.93;;;18.26;19.14
81999;BME280;71598;46.516;-122.928;2024-02-15T08:50:15;99070.62;;;18.30;19.11
81999;BME280;71598;46.516;-122.928;2024-02-15T08:52:41;99064.45;;;18.20;19.14
81999;BME280;71598;46.516;-122.928;2024-02-15T08:55:08;99042.30;;;18.30;19.08
81999;BME280;71598;46.516;-122.928;2024-02-15T08:57:32;99030.18;;;17.98;19.06
81999;BME280;71598;46.516;-122.928;2024-02-15T08:59:59;99016.45;;;18.11;19.13
81999;BME280;71598;46.516;-122.928;2024-02-15T09:02:24;99025.01;;;18.00;19.10
81999;BME280;71598;46.516;-122.928;2024-02-15T09:04:49;99029.32;;;18.07;19.10
81999;BME280;71598;46.516;-122.928;2024-02-15T09:07:15;99016.38;;;18.37;19.02
81999;BME280;71598;46.516;-122.928;2024-02-15T09:09:40;99028.50;;;17.82;19.12
81999;BME280;71598;46.516;-122.928;2024-02-15T09:12:06;99031.16;;;17.96;19.13
81999;BME280;71598;46.516;-122.928;2024-02-15T09:14:31;99032.63;;;17.80;19.15
81999;BME280;71598;46.516;-122.928;2024-02-15T09:16:56;99051.10;;;18.20;19.11
81999;BME280;71598;46.516;-122.928;2024-02-15T09:19:21;99068.04;;;17.95;19.14
81999;BME280;71598;46.516;-122.928;2024-02-15T09:21:47;99069.43;;;18.13;19.12
81999;BME280;71598;46.516;-122.928;2024-02-15T09:24:12;99060.66;;;18.09;19.26
81999;BME280;71598;46.516;-122.928;2024-02-15T09:26:37;99059.57;;;17.84;19.09
81999;BME280;71598;46.516;-122.928;2024-02-15T09:29:02;99071.93;;;18.17;19.10
81999;BME280;71598;46.516;-122.928;2024-02-15T09:31:28;99076.92;;;18.12;19.09
81999;BME280;71598;46.516;-122.928;2024-02-15T09:33:54;99076.18;;;18.07;19.14
81999;BME280;71598;46.516;-122.928;2024-02-15T09:36:19;99072.79;;;18.01;19.15
81999;BME280;71598;46.516;-122.928;2024-02-15T09:38:44;99070.20;;;18.23;18.99
81999;BME280;71598;46.516;-122.928;2024-02-15T09:41:10;99066.56;;;17.86;19.16
81999;BME280;71598;46.516;-122.928;2024-02-15T09:43:36;99075.20;;;17.91;19.22
81999;BME280;71598;46.516;-122.928;2024-02-15T09:46:01;99082.72;;;17.97;19.15
81999;BME280;71598;46.516;-122.928;2024-02-15T09:48:28;99093.98;;;17.93;19.15
81999;BME280;71598;46.516;-122.928;2024-02-15T09:50:53;99093.84;;;17.72;19.11
81999;BME280;71598;46.516;-122.928;2024-02-15T09:53:21;99097.49;;;17.80;19.17
81999;BME280;71598;46.516;-122.928;2024-02-15T09:55:43;99101.04;;;17.56;19.18
81999;BME280;71598;46.516;-122.928;2024-02-15T09:58:09;99106.62;;;18.59;19.00
81999;BME280;71598;46.516;-122.928;2024-02-15T10:00:35;99113.89;;;18.42;19.08
81999;BME280;71598;46.516;-122.928;2024-02-15T10:03:00;99125.05;;;18.18;19.36
81999;BME280;71598;46.516;-122.928;2024-02-15T10:05:24;99124.83;;;18.60;19.32
81999;BME280;71598;46.516;-122.928;2024-02-15T10:07:50;99123.56;;;18.31;19.47
81999;BME280;71598;46.516;-122.928;2024-02-15T10:10:17;99133.56;;;19.10;19.25
81999;BME280;71598;46.516;-122.928;2024-02-15T10:12:40;99132.71;;;19.21;19.12
81999;BME280;71598;46.516;-122.928;2024-02-15T10:15:06;99130.49;;;18.99;18.93
81999;BME280;71598;46.516;-122.928;2024-02-15T10:17:31;99120.56;;;19.06;18.99
81999;BME280;71598;46.516;-122.928;2024-02-15T10:20:08;99116.32;;;19.20;18.99
81999;BME280;71598;46.516;-122.928;2024-02-15T10:22:24;99120.52;;;18.51;19.18
81999;BME280;71598;46.516;-122.928;2024-02-15T10:24:48;99117.62;;;18.61;19.16
81999;BME280;71598;46.516;-122.928;2024-02-15T10:27:14;99117.46;;;18.85;19.16
81999;BME280;71598;46.516;-122.928;2024-02-15T10:29:39;99115.89;;;18.26;19.23
81999;BME280;71598;46.516;-122.928;2024-02-15T10:32:05;99115.30;;;18.69;19.25
81999;BME280;71598;46.516;-122.928;2024-02-15T10:34:30;99118.02;;;18.54;19.11
81999;BME280;71598;46.516;-122.928;2024-02-15T10:36:56;99114.86;;;18.14;19.37
81999;BME280;71598;46.516;-122.928;2024-02-15T10:39:21;99118.06;;;18.42;19.22
81999;BME280;71598;46.516;-122.928;2024-02-15T10:41:47;99121.53;;;18.04;19.28
81999;BME280;71598;46.516;-122.928;2024-02-15T10:44:14;99123.39;;;18.00;19.19
81999;BME280;71598;46.516;-122.928;2024-02-15T10:46:36;99130.73;;;18.48;19.13
81999;BME280;71598;46.516;-122.928;2024-02-15T10:49:02;99129.56;;;18.51;19.11
81999;BME280;71598;46.516;-122.928;2024-02-15T10:51:28;99131.34;;;18.73;19.06
81999;BME280;71598;46.516;-122.928;2024-02-15T10:54:00;99135.50;;;18.32;19.09
81999;BME280;71598;46.516;-122.928;2024-02-15T10:56:20;99133.89;;;18.66;19.09
81999;BME280;71598;46.516;-122.928;2024-02-15T10:58:49;99135.77;;;18.46;19.14
81999;BME280;71598;46.516;-122.928;2024-02-15T11:01:12;99141.24;;;18.47;19.10
81999;BME280;71598;46.516;-122.928;2024-02-15T11:03:36;99139.03;;;18.47;19.07
81999;BME280;71598;46.516;-122.928;2024-02-15T11:06:02;99134.08;;;18.19;19.28
81999;BME280;71598;46.516;-122.928;2024-02-15T11:08:26;99135.13;;;18.42;19.13
81999;BME280;71598;46.516;-122.928;2024-02-15T11:10:51;99137.06;;;18.07;19.20
81999;BME280;71598;46.516;-122.928;2024-02-15T11:13:17;99147.28;;;18.32;19.17
81999;BME280;71598;46.516;-122.928;2024-02-15T11:15:44;99147.19;;;18.08;19.18
81999;BME280;71598;46.516;-122.928;2024-02-15T11:18:08;99152.35;;;18.17;19.18
81999;BME280;71598;46.516;-122.928;2024-02-15T11:20:55;99157.52;;;17.90;19.16
81999;BME280;71598;46.516;-122.928;2024-02-15T11:22:59;99164.34;;;18.21;19.12
81999;BME280;71598;46.516;-122.928;2024-02-15T11:25:32;99169.42;;;18.45;19.10
81999;BME280;71598;46.516;-122.928;2024-02-15T11:27:49;99174.32;;;18.13;19.24
81999;BME280;71598;46.516;-122.928;2024-02-15T11:30:32;99180.91;;;18.20;19.10
81999;BME280;71598;46.516;-122.928;2024-02-15T11:32:43;99182.67;;;18.28;19.17
81999;BME280;71598;46.516;-122.928;2024-02-15T11:35:07;99187.39;;;18.40;19.16
81999;BME280;71598;46.516;-122.928;2024-02-15T11:37:53;99194.51;;;18.01;19.08
81999;BME280;71598;46.516;-122.928;2024-02-15T11:40:00;99203.36;;;17.92;19.15
81999;BME280;71598;46.516;-122.928;2024-02-15T11:42:30;99210.66;;;18.20;19.16
81999;BME280;71598;46.516;-122.928;2024-02-15T11:44:48;99211.28;;;18.11;19.13
81999;BME280;71598;46.516;-122.928;2024-02-15T11:47:14;99211.72;;;18.12;19.12
81999;BME280;71598;46.516;-122.928;2024-02-15T11:49:39;99209.35;;;18.21;19.15
81999;BME280;71598;46.516;-122.928;2024-02-15T11:52:10;99208.44;;;18.11;19.26
81999;BME280;71598;46.516;-122.928;2024-02-15T11:54:30;99208.99;;;17.94;19.17
81999;BME280;71598;46.516;-122.928;2024-02-15T11:56:56;99211.60;;;18.02;19.24
81999;BME280;71598;46.516;-122.928;2024-02-15T11:59:21;99217.21;;;18.08;19.26
81999;BME280;71598;46.516;-122.928;2024-02-15T12:01:47;99226.87;;;18.01;19.18
81999;BME280;71598;46.516;-122.928;2024-02-15T12:04:13;99233.12;;;18.04;19.13
81999;BME280;71598;46.516;-122.928;2024-02-15T12:06:37;99231.74;;;18.12;19.12
81999;BME280;71598;46.516;-122.928;2024-02-15T12:09:03;99230.18;;;17.96;19.09
81999;BME280;71598;46.516;-122.928;2024-02-15T12:11:28;99234.97;;;17.95;19.09
81999;BME280;71598;46.516;-122.928;2024-02-15T12:13:54;99237.24;;;18.09;19.06
81999;BME280;71598;46.516;-122.928;2024-02-15T12:16:19;99242.29;;;18.05;19.12
81999;BME280;71598;46.516;-122.928;2024-02-15T12:18:45;99245.56;;;17.95;19.05
81999;BME280;71598;46.516;-122.928;2024-02-15T12:21:13;99245.00;;;17.94;19.07